Time;durP1;ratioP1;P1;durP2;ratioP2;P2;SDS_P1;SDS_P2;PMS_P1;PMS_P2;Temp;Humidity;BMP_temperature;BMP_pressure;BME280_temperature;BME280_humidity;BME280_pressure;Samples;Min_cycle;Max_cycle;Signal;HPM_P1;HPM_P2
2020/12/18 00:43:32;;;;;;;11.17;7.40;;;6.90;99.90;;;;;;4920451;29;20170;-96
2020/12/18 00:52:07;;;;;;;10.30;7.03;;;6.90;99.90;;;;;;4874057;29;20244;-96
2020/12/18 00:54:33;;;;;;;12.20;6.67;;;6.90;99.90;;;;;;4847414;29;20189;-96
2020/12/18 00:57:17;;;;;;;13.67;7.20;;;6.90;99.90;;;;;;4862258;29;20523;-96
2020/12/18 01:00:44;;;;;;;11.37;6.40;;;6.90;99.90;;;;;;4876542;29;20172;-96
2020/12/18 01:03:19;;;;;;;11.50;6.83;;;6.90;99.90;;;;;;4833226;23;20263;-96
2020/12/18 01:09:36;;;;;;;9.80;6.83;;;6.90;99.90;;;;;;4894596;23;20251;-96
2020/12/18 01:12:07;;;;;;;8.67;6.50;;;7.00;99.90;;;;;;4854472;29;20243;-96
2020/12/18 01:22:53;;;;;;;10.83;6.47;;;7.00;99.90;;;;;;5075990;23;20258;-95
2020/12/18 01:25:48;;;;;;;10.97;6.50;;;7.00;99.90;;;;;;4878514;29;20240;-96
2020/12/18 01:28:33;;;;;;;9.97;6.03;;;7.00;99.90;;;;;;4897282;29;20188;-96
2020/12/18 01:31:16;;;;;;;10.77;6.30;;;7.00;99.90;;;;;;4878612;29;20215;-96
2020/12/18 01:34:31;;;;;;;13.60;6.47;;;7.00;99.90;;;;;;4881061;29;20603;-96
2020/12/18 01:44:01;;;;;;;7.97;5.87;;;7.00;99.90;;;;;;4898992;29;20183;-96
2020/12/18 01:47:19;;;;;;;10.50;6.07;;;6.90;99.90;;;;;;4885140;29;20172;-96
2020/12/18 01:52:24;;;;;;;11.33;6.47;;;6.90;99.90;;;;;;4921334;23;20228;-96
2020/12/18 01:55:07;;;;;;;9.03;5.50;;;6.90;99.90;;;;;;4883970;29;20195;-96
2020/12/18 01:57:34;;;;;;;8.03;5.80;;;6.90;99.90;;;;;;4877539;29;20698;-96
2020/12/18 02:00:10;;;;;;;6.70;5.27;;;6.90;99.90;;;;;;4894966;29;20188;-96
2020/12/18 02:03:18;;;;;;;;;;;;;;;;;;;;;
2020/12/18 02:06:29;;;;;;;8.00;5.20;;;6.80;99.90;;;;;;4990995;23;20329;-96
2020/12/18 02:12:47;;;;;;;11.37;6.07;;;6.90;99.90;;;;;;4930292;23;20307;-96
2020/12/18 02:15:23;;;;;;;8.53;5.63;;;6.80;99.90;;;;;;4878119;29;20187;-96
2020/12/18 02:18:11;;;;;;;10.33;5.63;;;6.80;99.90;;;;;;4877439;29;20180;-96
2020/12/18 02:20:36;;;;;;;9.27;5.60;;;6.80;99.90;;;;;;4879073;29;20601;-96
2020/12/18 02:23:02;;;;;;;7.60;5.00;;;6.80;99.90;;;;;;4876673;29;20184;-96
2020/12/18 02:26:12;;;;;;;7.60;5.47;;;6.80;99.90;;;;;;4870153;29;20175;-96
2020/12/18 02:29:27;;;;;;;10.57;5.87;;;6.80;99.90;;;;;;4890005;23;20293;-96
2020/12/18 02:34:37;;;;;;;9.50;5.03;;;6.80;99.90;;;;;;4955997;23;20258;-96
2020/12/18 02:52:53;;;;;;;8.83;4.67;;;6.80;99.90;;;;;;4873068;29;20224;-96
2020/12/18 02:55:22;;;;;;;8.17;4.83;;;6.80;99.90;;;;;;4827430;29;20196;-96
2020/12/18 02:58:16;;;;;;;7.23;4.53;;;6.70;99.90;;;;;;4862173;29;20200;-96
2020/12/18 03:00:52;;;;;;;6.13;4.27;;;6.70;99.90;;;;;;4989349;23;20303;31
2020/12/18 03:03:52;;;;;;;;;;;;;;;;;;;;;
2020/12/18 03:06:54;;;;;;;9.07;4.97;;;6.60;99.90;;;;;;4879385;29;20220;-96
2020/12/18 03:09:22;;;;;;;5.83;4.53;;;6.60;99.90;;;;;;4937495;23;20227;-96
2020/12/18 03:11:52;;;;;;;5.87;4.53;;;6.60;99.90;;;;;;5118124;23;20243;-96
2020/12/18 03:14:19;;;;;;;8.10;4.87;;;6.50;99.90;;;;;;4881667;29;20278;-96
2020/12/18 03:17:09;;;;;;;8.60;4.47;;;6.50;99.90;;;;;;4889485;23;20231;-96
2020/12/18 03:26:00;;;;;;;8.03;5.07;;;6.40;99.90;;;;;;4928764;23;20227;-96
2020/12/18 03:28:36;;;;;;;6.23;4.63;;;6.40;99.90;;;;;;4879028;29;20184;-96
2020/12/18 03:31:37;;;;;;;8.90;4.80;;;6.30;99.90;;;;;;4881324;29;20202;-96
2020/12/18 03:34:18;;;;;;;8.93;4.83;;;6.30;99.90;;;;;;4918296;23;20235;-96
2020/12/18 03:36:53;;;;;;;9.00;4.77;;;6.20;99.90;;;;;;4893926;29;20168;-96
2020/12/18 03:39:22;;;;;;;7.40;4.93;;;6.20;99.90;;;;;;4879770;29;20565;-96
2020/12/18 03:42:08;;;;;;;12.57;5.27;;;6.20;99.90;;;;;;4878917;29;20207;-96
2020/12/18 03:44:37;;;;;;;10.03;4.80;;;6.10;99.90;;;;;;4875157;29;20188;-96
2020/12/18 03:47:37;;;;;;;5.90;4.70;;;6.10;99.90;;;;;;4882099;29;20164;-96
2020/12/18 03:50:41;;;;;;;10.40;5.33;;;6.00;99.90;;;;;;4877944;29;20192;-96
2020/12/18 03:53:12;;;;;;;7.80;5.30;;;6.00;99.90;;;;;;4870531;23;20247;-96
2020/12/18 03:56:10;;;;;;;13.07;5.20;;;5.90;99.90;;;;;;4874072;29;20192;-96
2020/12/18 04:01:29;;;;;;;9.23;4.23;;;5.80;99.90;;;;;;4911303;23;20554;-96
2020/12/18 04:04:28;;;;;;;6.33;4.00;;;5.80;99.90;;;;;;4876153;29;20184;-96
2020/12/18 04:06:56;;;;;;;8.67;4.40;;;5.70;99.90;;;;;;4876211;29;20187;-96
2020/12/18 04:09:24;;;;;;;5.27;4.37;;;5.70;99.90;;;;;;4877480;29;20191;-96
2020/12/18 04:12:27;;;;;;;8.33;4.80;;;5.60;99.90;;;;;;4875183;29;20215;-96
2020/12/18 04:15:17;;;;;;;7.87;4.50;;;5.60;99.90;;;;;;4879276;29;20180;-96
2020/12/18 04:17:49;;;;;;;7.60;5.17;;;5.50;99.90;;;;;;4877835;29;20192;-96
2020/12/18 04:20:45;;;;;;;6.67;4.50;;;5.40;99.90;;;;;;4879250;29;20168;-96
2020/12/18 04:23:16;;;;;;;9.70;4.60;;;5.40;99.90;;;;;;4874585;29;20199;-96
2020/12/18 04:25:53;;;;;;;6.80;4.20;;;5.40;99.90;;;;;;4985970;23;20248;-96
2020/12/18 04:28:40;;;;;;;7.13;4.00;;;5.30;99.90;;;;;;4877261;29;20183;-96
2020/12/18 04:31:43;;;;;;;10.73;5.00;;;5.30;99.90;;;;;;4879608;29;20666;-96
2020/12/18 04:34:33;;;;;;;7.23;4.43;;;5.30;99.90;;;;;;4878549;29;20187;-96
2020/12/18 04:37:11;;;;;;;7.70;4.40;;;5.30;99.90;;;;;;4875828;29;20207;-96
2020/12/18 04:39:46;;;;;;;9.47;4.47;;;5.20;99.90;;;;;;4878814;29;20182;-96
2020/12/18 04:42:19;;;;;;;8.97;5.03;;;5.20;99.90;;;;;;4963755;23;20618;-96
2020/12/18 04:45:08;;;;;;;9.70;4.87;;;5.10;99.90;;;;;;4857785;29;20181;-96
2020/12/18 04:47:41;;;;;;;6.67;4.57;;;5.10;99.90;;;;;;4844405;29;20273;-96
2020/12/18 04:50:13;;;;;;;7.27;4.43;;;5.10;99.90;;;;;;4857845;29;20176;-96
2020/12/18 04:52:41;;;;;;;8.37;4.97;;;5.00;99.90;;;;;;4858374;29;20245;-96
2020/12/18 04:55:29;;;;;;;6.93;4.60;;;5.00;99.90;;;;;;4844367;29;20533;-96
2020/12/18 04:58:00;;;;;;;9.20;4.80;;;4.90;99.90;;;;;;4858003;29;20181;-96
2020/12/18 05:00:27;;;;;;;6.70;4.43;;;4.90;99.90;;;;;;4858966;29;20176;-96
2020/12/18 05:02:53;;;;;;;12.63;5.37;;;5.00;99.90;;;;;;4855571;29;20595;-96
2020/12/18 05:05:19;;;;;;;5.07;4.07;;;4.90;99.90;;;;;;4857328;29;20177;-96
2020/12/18 05:07:50;;;;;;;8.30;4.37;;;4.90;99.90;;;;;;4855674;29;20185;-96
2020/12/18 05:10:15;;;;;;;9.10;4.83;;;4.90;99.90;;;;;;4858011;29;20232;-96
2020/12/18 05:13:12;;;;;;;11.07;5.40;;;4.80;99.90;;;;;;4860468;29;20229;-96
2020/12/18 05:15:45;;;;;;;8.97;4.97;;;4.80;99.90;;;;;;4857818;29;20192;-96
2020/12/18 05:18:40;;;;;;;7.67;4.73;;;4.80;99.90;;;;;;4858327;29;20244;-96
2020/12/18 05:21:31;;;;;;;10.97;4.93;;;4.80;99.90;;;;;;4871710;29;20652;-96
2020/12/18 05:23:57;;;;;;;6.50;4.53;;;4.80;99.90;;;;;;4862768;24;20570;-96
2020/12/18 05:26:33;;;;;;;11.97;5.37;;;4.80;99.90;;;;;;4872728;29;20232;-96
2020/12/18 05:29:08;;;;;;;8.73;4.80;;;4.80;99.90;;;;;;4884335;24;20256;-96
2020/12/18 05:31:49;;;;;;;8.83;5.30;;;4.80;99.90;;;;;;4892644;29;20557;-96
2020/12/18 05:34:21;;;;;;;10.53;5.07;;;4.80;99.90;;;;;;4885517;23;20239;-96
2020/12/18 05:36:47;;;;;;;8.10;4.80;;;4.80;99.90;;;;;;4859174;29;20185;-96
2020/12/18 05:39:18;;;;;;;6.30;4.27;;;4.80;99.90;;;;;;4873781;29;20189;-96
2020/12/18 05:42:04;;;;;;;10.90;4.87;;;4.80;99.90;;;;;;4875081;29;20647;-96
2020/12/18 05:44:31;;;;;;;8.77;4.57;;;4.80;99.90;;;;;;4872158;29;20184;-96
2020/12/18 05:47:12;;;;;;;7.77;4.90;;;4.80;99.90;;;;;;4870236;29;20184;-95
2020/12/18 05:49:43;;;;;;;5.57;4.17;;;4.70;99.90;;;;;;4870269;29;20196;-96
2020/12/18 05:52:27;;;;;;;8.40;4.30;;;4.70;99.90;;;;;;4874370;29;20240;-96
2020/12/18 05:55:01;;;;;;;7.90;4.57;;;4.70;99.90;;;;;;4871998;29;20180;-96
2020/12/18 05:59:59;;;;;;;6.93;4.40;;;4.80;99.90;;;;;;4918268;23;20244;-96
2020/12/18 06:02:28;;;;;;;7.93;5.00;;;4.70;99.90;;;;;;4878607;23;20259;-96
2020/12/18 06:05:03;;;;;;;6.00;4.23;;;4.70;99.90;;;;;;4873152;29;20196;-96
2020/12/18 06:07:39;;;;;;;7.20;5.10;;;4.70;99.90;;;;;;4874782;29;20196;-96
2020/12/18 06:10:06;;;;;;;11.50;5.47;;;4.60;99.90;;;;;;4873770;29;20217;-96
2020/12/18 06:13:01;;;;;;;7.97;4.63;;;4.60;99.90;;;;;;4871548;29;20220;-96
2020/12/18 06:15:27;;;;;;;10.30;4.90;;;4.60;99.90;;;;;;4873414;29;20605;-96
2020/12/18 06:18:01;;;;;;;7.57;5.17;;;4.60;99.90;;;;;;4872818;29;20217;-96
2020/12/18 06:20:38;;;;;;;8.13;4.47;;;4.60;99.90;;;;;;4855193;29;20279;-96
2020/12/18 06:23:23;;;;;;;8.20;4.40;;;4.70;99.90;;;;;;4855635;29;20184;-96
2020/12/18 06:25:49;;;;;;;5.97;4.27;;;4.60;99.90;;;;;;4869284;29;20516;-96
2020/12/18 06:28:33;;;;;;;9.00;4.77;;;4.60;99.90;;;;;;4869881;29;20192;-96
2020/12/18 06:31:34;;;;;;;11.90;4.80;;;4.60;99.90;;;;;;4881497;29;20216;-96
2020/12/18 06:34:05;;;;;;;9.57;4.63;;;4.60;99.90;;;;;;4873393;29;20317;-96
2020/12/18 06:36:51;;;;;;;9.10;4.77;;;4.60;99.90;;;;;;4871236;29;20233;-96
2020/12/18 06:39:35;;;;;;;9.17;4.90;;;4.60;99.90;;;;;;4872270;29;20271;-96
2020/12/18 06:45:26;;;;;;;10.90;5.23;;;4.70;99.90;;;;;;4884397;29;20173;-96
2020/12/18 06:51:24;;;;;;;11.27;4.93;;;4.70;99.90;;;;;;4883239;29;20206;-96
2020/12/18 06:54:10;;;;;;;6.83;4.80;;;4.80;99.90;;;;;;4878115;29;20188;-96
2020/12/18 06:56:39;;;;;;;6.43;4.40;;;4.70;99.90;;;;;;4882367;29;20169;-96
2020/12/18 06:59:26;;;;;;;11.73;5.13;;;4.70;99.90;;;;;;4882576;29;20173;-96
2020/12/18 07:02:17;;;;;;;6.73;4.00;;;4.70;99.90;;;;;;4884456;29;20264;-96
2020/12/18 07:04:44;;;;;;;9.07;4.40;;;4.70;99.90;;;;;;4885902;29;20196;-96
2020/12/18 07:07:24;;;;;;;9.10;4.13;;;4.70;99.90;;;;;;4885768;29;20176;-96
2020/12/18 07:09:55;;;;;;;8.77;4.03;;;4.60;99.90;;;;;;4873786;23;20235;-96
2020/12/18 07:12:43;;;;;;;8.50;4.10;;;4.70;99.90;;;;;;4883828;29;20219;-96
2020/12/18 07:15:14;;;;;;;7.27;3.80;;;4.70;99.90;;;;;;4883669;29;20196;-96
2020/12/18 07:17:48;;;;;;;10.07;3.90;;;4.70;99.90;;;;;;4883372;29;20172;-96
2020/12/18 07:20:15;;;;;;;9.80;3.90;;;4.70;99.90;;;;;;4883317;29;20184;-96
2020/12/18 07:23:00;;;;;;;5.90;3.57;;;4.70;99.90;;;;;;4867595;29;20176;-96
2020/12/18 07:25:27;;;;;;;9.63;3.57;;;4.70;99.90;;;;;;4883072;29;20205;-96
2020/12/18 07:27:54;;;;;;;6.97;3.97;;;4.70;99.90;;;;;;4882841;29;20217;-96
2020/12/18 07:30:26;;;;;;;7.90;3.67;;;4.70;99.90;;;;;;4930291;23;20231;-96
2020/12/18 07:33:18;;;;;;;8.37;3.53;;;4.70;99.90;;;;;;4886969;29;20192;-96
2020/12/18 07:35:51;;;;;;;5.47;3.10;;;4.70;99.90;;;;;;4886583;29;20168;-96
2020/12/18 07:38:40;;;;;;;6.27;3.43;;;4.60;99.90;;;;;;4902259;29;20156;-96
2020/12/18 07:41:14;;;;;;;8.90;3.33;;;4.60;99.90;;;;;;4887478;29;20176;-96
2020/12/18 07:43:46;;;;;;;5.67;3.23;;;4.60;99.90;;;;;;4887791;29;20164;-96
2020/12/18 07:46:19;;;;;;;7.80;4.00;;;4.60;99.90;;;;;;4884869;29;20156;-96
2020/12/18 07:48:53;;;;;;;6.40;3.90;;;4.60;99.90;;;;;;4902656;29;20171;-96
2020/12/18 07:51:48;;;;;;;7.97;3.73;;;4.60;99.90;;;;;;4886753;29;20199;-96
2020/12/18 07:54:25;;;;;;;8.83;3.70;;;4.60;99.90;;;;;;4902379;29;20194;-96
2020/12/18 07:57:04;;;;;;;6.87;3.67;;;4.60;99.90;;;;;;4886574;29;20200;-96
2020/12/18 08:02:53;;;;;;;6.83;4.00;;;4.60;99.90;;;;;;4902253;29;20167;-96
2020/12/18 08:05:22;;;;;;;7.60;3.93;;;4.70;99.90;;;;;;4884684;29;20187;-96
2020/12/18 08:08:08;;;;;;;7.20;4.07;;;4.70;99.90;;;;;;4885543;29;20188;-96
2020/12/18 08:10:39;;;;;;;5.53;3.50;;;4.80;99.90;;;;;;4886805;29;20256;-96
2020/12/18 08:16:40;;;;;;;4.80;2.90;;;4.80;99.90;;;;;;4894174;29;20201;-96
2020/12/18 08:19:08;;;;;;;6.57;3.30;;;4.90;99.90;;;;;;4888551;29;20183;-96
2020/12/18 08:21:46;;;;;;;6.83;3.50;;;4.90;99.90;;;;;;4872954;29;20235;-96
2020/12/18 08:24:35;;;;;;;4.63;3.00;;;5.00;99.90;;;;;;4872334;29;20190;-96
2020/12/18 08:27:09;;;;;;;9.33;3.10;;;5.00;99.90;;;;;;4847313;29;20609;-96
2020/12/18 08:29:42;;;;;;;8.47;3.67;;;5.00;99.90;;;;;;4853580;29;20228;-96
2020/12/18 08:32:27;;;;;;;4.07;3.13;;;5.10;99.90;;;;;;4870851;29;20240;-96
2020/12/18 08:35:24;;;;;;;5.37;3.53;;;5.10;99.90;;;;;;4874342;29;20185;-96
2020/12/18 08:38:08;;;;;;;6.90;3.50;;;5.10;99.90;;;;;;4871701;29;20218;-96
2020/12/18 08:40:53;;;;;;;6.80;3.37;;;5.10;99.90;;;;;;4930121;24;20247;-96
2020/12/18 08:43:32;;;;;;;7.20;3.97;;;5.20;99.90;;;;;;4894770;29;20199;-96
2020/12/18 08:46:04;;;;;;;7.00;3.83;;;5.30;99.90;;;;;;4895808;29;20686;-96
2020/12/18 08:48:46;;;;;;;7.80;4.27;;;5.30;99.90;;;;;;4896710;29;20186;-96
2020/12/18 08:51:22;;;;;;;7.13;3.83;;;5.40;99.90;;;;;;4894136;29;20200;-96
2020/12/18 08:53:50;;;;;;;6.87;3.83;;;5.50;99.90;;;;;;4895825;29;20168;-96
2020/12/18 08:56:23;;;;;;;12.73;4.40;;;5.60;99.90;;;;;;4879158;29;20185;-96
2020/12/18 08:59:01;;;;;;;9.40;3.87;;;5.60;99.90;;;;;;4873904;29;20169;-96
2020/12/18 09:01:27;;;;;;;9.00;3.87;;;5.60;99.90;;;;;;4873364;29;20263;-94
2020/12/18 09:03:55;;;;;;;8.70;3.87;;;5.60;99.90;;;;;;4869416;29;20195;-95
2020/12/18 09:06:32;;;;;;;5.33;3.77;;;5.70;99.90;;;;;;4853606;29;20197;-95
2020/12/18 09:14:06;;;;;;;7.27;4.07;;;5.80;99.90;;;;;;4881187;29;20236;-96
2020/12/18 09:16:41;;;;;;;6.60;3.47;;;5.80;99.90;;;;;;4863542;29;20188;-96
2020/12/18 09:19:15;;;;;;;9.93;4.30;;;5.80;99.90;;;;;;4867946;29;20264;-95
2020/12/18 09:22:09;;;;;;;5.83;3.90;;;5.90;99.90;;;;;;4882626;29;20207;-94
2020/12/18 09:24:38;;;;;;;8.77;4.03;;;5.90;99.90;;;;;;4872644;29;20202;-95
2020/12/18 09:27:12;;;;;;;6.77;3.90;;;5.90;99.90;;;;;;4871941;29;20223;-96
2020/12/18 09:30:02;;;;;;;10.27;4.50;;;5.90;99.90;;;;;;4892373;23;20207;-95
2020/12/18 09:32:39;;;;;;;6.87;3.47;;;5.90;99.90;;;;;;4844097;29;20221;-95
2020/12/18 09:35:13;;;;;;;8.57;4.13;;;6.00;99.90;;;;;;4844225;29;20652;-96
2020/12/18 09:37:43;;;;;;;8.20;3.37;;;5.90;99.90;;;;;;4849099;29;20193;-96
2020/12/18 09:40:12;;;;;;;5.90;3.00;;;6.00;99.90;;;;;;4840746;29;20302;-96
2020/12/18 09:42:41;;;;;;;7.40;3.40;;;6.10;99.90;;;;;;4840610;29;20597;-96
2020/12/18 09:45:35;;;;;;;5.60;3.33;;;6.10;99.90;;;;;;4834950;29;20241;-96
2020/12/18 09:48:03;;;;;;;10.47;4.47;;;6.10;99.90;;;;;;4838164;29;20202;-96
2020/12/18 09:50:33;;;;;;;8.80;3.53;;;6.20;99.90;;;;;;4846415;29;20197;-96
2020/12/18 09:53:12;;;;;;;10.30;3.20;;;6.30;99.90;;;;;;4844649;29;20706;-96
2020/12/18 09:56:03;;;;;;;7.33;3.53;;;6.30;99.90;;;;;;4850903;24;20269;-96
2020/12/18 09:58:32;;;;;;;9.43;3.60;;;6.30;99.90;;;;;;4850583;29;20211;-95
2020/12/18 10:01:06;;;;;;;4.07;3.03;;;6.40;99.90;;;;;;4851302;29;20269;-95
2020/12/18 10:04:05;;;;;;;5.27;2.90;;;6.40;99.90;;;;;;4833646;29;20824;-96
2020/12/18 10:06:32;;;;;;;5.60;3.17;;;6.50;99.90;;;;;;4849496;29;20318;-96
2020/12/18 10:09:08;;;;;;;7.20;3.17;;;6.60;99.90;;;;;;4838918;29;20634;-96
2020/12/18 10:11:37;;;;;;;5.70;3.40;;;6.60;99.90;;;;;;4869105;29;20236;-96
2020/12/18 10:14:23;;;;;;;8.37;3.67;;;6.70;99.90;;;;;;4849960;29;20194;-96
2020/12/18 10:17:18;;;;;;;11.67;3.53;;;6.80;99.90;;;;;;4839746;29;20221;-96
2020/12/18 10:19:47;;;;;;;8.30;4.07;;;6.90;99.90;;;;;;4826023;29;20720;-96
2020/12/18 10:22:13;;;;;;;9.50;4.13;;;7.00;99.90;;;;;;4846343;29;20197;-96
2020/12/18 10:24:42;;;;;;;8.23;3.63;;;7.00;99.90;;;;;;4844615;29;20641;-96
2020/12/18 10:27:57;;;;;;;7.70;3.10;;;7.10;99.90;;;;;;4844481;29;20580;-96
2020/12/18 10:30:45;;;;;;;7.73;3.50;;;7.30;99.90;;;;;;4868218;29;20170;-96
2020/12/18 10:33:11;;;;;;;9.83;3.97;;;7.30;99.90;;;;;;4850321;29;20253;-96
2020/12/18 10:35:52;;;;;;;8.87;3.40;;;7.40;99.90;;;;;;4847318;29;20633;-96
2020/12/18 10:38:18;;;;;;;6.83;3.30;;;7.40;99.90;;;;;;4849994;29;20240;-96
2020/12/18 10:40:58;;;;;;;8.83;3.73;;;7.40;99.90;;;;;;4852684;29;20197;-96
2020/12/18 10:43:28;;;;;;;10.17;4.30;;;7.50;99.90;;;;;;4847182;29;20197;-96
2020/12/18 10:46:26;;;;;;;9.03;3.80;;;7.50;99.90;;;;;;4845789;29;20213;-96
2020/12/18 10:48:54;;;;;;;9.10;3.80;;;7.50;99.90;;;;;;4850998;29;20193;-95
2020/12/18 10:51:51;;;;;;;5.97;4.00;;;7.50;99.90;;;;;;4848193;29;20623;-96
2020/12/18 10:55:00;;;;;;;7.53;3.87;;;7.60;99.90;;;;;;4839622;29;20673;-96
2020/12/18 10:57:55;;;;;;;8.40;3.97;;;7.60;99.90;;;;;;4867159;29;20244;-96
2020/12/18 11:03:31;;;;;;;8.57;4.67;;;7.70;99.90;;;;;;5032115;23;20239;-96
2020/12/18 11:06:47;;;;;;;5.57;4.10;;;7.80;99.90;;;;;;4873617;29;20196;-96
2020/12/18 11:09:14;;;;;;;11.80;4.30;;;7.80;99.90;;;;;;4880842;29;20305;-96
2020/12/18 11:11:59;;;;;;;7.83;4.10;;;7.80;99.90;;;;;;4967933;23;20236;-96
2020/12/18 11:15:06;;;;;;;5.77;3.80;;;7.80;99.90;;;;;;4910032;29;20729;-96
2020/12/18 11:17:56;;;;;;;8.40;4.07;;;7.90;99.90;;;;;;4879909;29;20235;-96
2020/12/18 11:20:40;;;;;;;6.90;3.73;;;8.00;99.90;;;;;;4897285;23;20244;-96
2020/12/18 11:23:06;;;;;;;9.00;4.63;;;8.00;99.90;;;;;;4870741;29;20189;-96
2020/12/18 11:26:11;;;;;;;6.40;4.23;;;8.10;99.90;;;;;;4857597;29;20248;-96
2020/12/18 11:29:18;;;;;;;8.80;4.33;;;8.10;99.90;;;;;;4876562;29;20172;-96
2020/12/18 11:31:48;;;;;;;6.20;3.83;;;8.10;99.90;;;;;;4871048;29;20247;-96
2020/12/18 11:34:16;;;;;;;6.10;4.23;;;8.20;99.90;;;;;;4857737;29;20530;-96
2020/12/18 11:37:02;;;;;;;7.40;4.63;;;8.20;99.90;;;;;;4853966;29;20196;-96
2020/12/18 11:39:31;;;;;;;6.83;4.13;;;8.20;99.90;;;;;;4871823;29;20307;-96
2020/12/18 11:42:11;;;;;;;6.83;4.30;;;8.30;99.90;;;;;;4856856;29;20186;-96
2020/12/18 11:44:37;;;;;;;7.70;4.20;;;8.30;99.90;;;;;;4856477;29;20184;-96
2020/12/18 11:47:09;;;;;;;6.77;4.50;;;8.40;99.90;;;;;;4858096;29;20185;-96
2020/12/18 11:50:11;;;;;;;6.97;3.80;;;8.40;99.90;;;;;;4908790;24;20244;-96
2020/12/18 11:52:37;;;;;;;8.30;4.70;;;8.40;99.90;;;;;;4890622;29;20338;-95
2020/12/18 11:55:20;;;;;;;5.87;3.87;;;8.30;99.90;;;;;;4948618;24;20227;-96
2020/12/18 11:57:53;;;;;;;7.13;4.10;;;8.30;99.90;;;;;;4877675;29;20222;-96
2020/12/18 12:00:46;;;;;;;9.53;3.80;;;8.30;99.90;;;;;;4893172;29;20184;-96
2020/12/18 12:03:17;;;;;;;6.03;3.80;;;8.30;99.90;;;;;;4898678;23;20224;-96
2020/12/18 12:05:47;;;;;;;6.40;4.23;;;8.40;99.90;;;;;;4887230;23;20251;-96
2020/12/18 12:08:14;;;;;;;10.33;4.07;;;8.40;99.90;;;;;;4881950;29;20275;-96
2020/12/18 12:19:47;;;;;;;5.77;3.60;;;8.50;99.90;;;;;;4873378;23;20212;-96
2020/12/18 12:32:39;;;;;;;8.93;4.30;;;8.20;99.90;;;;;;5234060;23;20251;-96
2020/12/18 12:58:18;;;;;;;6.30;3.90;;;8.40;99.90;;;;;;4972085;23;20248;31
2020/12/18 13:03:38;;;;;;;6.13;4.47;;;8.60;99.90;;;;;;5121099;23;20248;-96
2020/12/18 13:06:30;;;;;;;8.83;4.27;;;8.60;99.90;;;;;;4879163;29;20347;-96
2020/12/18 13:08:56;;;;;;;5.23;3.70;;;8.70;99.90;;;;;;4875959;29;20198;-96
2020/12/18 13:14:37;;;;;;;5.37;3.73;;;8.60;99.90;;;;;;4886691;29;20243;-96
2020/12/18 13:17:08;;;;;;;6.87;3.90;;;8.70;99.90;;;;;;4868619;29;20217;-96
2020/12/18 13:19:40;;;;;;;8.30;3.97;;;8.60;99.90;;;;;;4868957;29;20292;-96
2020/12/18 13:22:07;;;;;;;7.30;3.93;;;8.60;99.90;;;;;;4868069;29;20191;-96
2020/12/18 13:24:34;;;;;;;5.80;3.60;;;8.50;99.90;;;;;;4868555;29;20215;-96
2020/12/18 13:27:07;;;;;;;7.50;3.87;;;8.50;99.90;;;;;;4873641;29;20243;-96
2020/12/18 13:29:34;;;;;;;4.90;3.33;;;8.70;99.90;;;;;;4863460;29;20188;-96
2020/12/18 13:31:59;;;;;;;5.80;3.27;;;8.80;99.90;;;;;;4855387;29;20242;-96
2020/12/18 13:34:25;;;;;;;5.03;3.07;;;8.90;99.90;;;;;;4853290;29;20181;-96
2020/12/18 13:36:55;;;;;;;7.30;3.13;;;9.00;99.90;;;;;;4862284;29;20183;-96
2020/12/18 13:39:21;;;;;;;6.53;2.73;;;9.00;99.90;;;;;;4875982;29;20188;-96
2020/12/18 13:41:48;;;;;;;8.13;3.07;;;9.00;99.90;;;;;;4874136;29;20165;-96
2020/12/18 13:44:37;;;;;;;6.10;3.40;;;9.00;99.90;;;;;;4895025;29;20188;-96
2020/12/18 13:47:26;;;;;;;4.20;2.70;;;9.00;99.90;;;;;;4880991;29;20176;-96
2020/12/18 13:50:01;;;;;;;7.20;2.93;;;8.90;99.90;;;;;;4893576;29;20244;-96
2020/12/18 13:52:37;;;;;;;4.13;2.70;;;8.90;99.90;;;;;;4876301;29;20216;-96
2020/12/18 13:55:07;;;;;;;6.20;2.80;;;8.70;99.90;;;;;;4876497;29;20184;-96
2020/12/18 13:57:35;;;;;;;5.30;2.97;;;8.60;99.90;;;;;;4878680;29;20191;-96
2020/12/18 14:00:07;;;;;;;6.37;2.80;;;8.60;99.90;;;;;;4877223;29;20223;-96
2020/12/18 14:02:33;;;;;;;5.23;2.93;;;8.60;99.90;;;;;;4878152;29;20192;-96
2020/12/18 14:05:05;;;;;;;6.50;2.70;;;8.60;99.90;;;;;;4856439;29;20251;-96
2020/12/18 14:08:06;;;;;;;7.87;2.87;;;8.70;99.90;;;;;;4870597;29;20286;-96
2020/12/18 14:10:33;;;;;;;4.47;2.17;;;8.60;99.90;;;;;;4868608;29;20183;-96
2020/12/18 14:13:00;;;;;;;8.63;2.63;;;8.70;99.90;;;;;;4868029;29;20719;-96
2020/12/18 14:15:25;;;;;;;5.40;2.50;;;8.70;99.90;;;;;;4864104;29;20187;-96
2020/12/18 14:17:53;;;;;;;5.47;2.50;;;8.70;99.90;;;;;;4866161;29;20193;-96
2020/12/18 14:20:21;;;;;;;7.63;2.37;;;8.70;99.90;;;;;;4863397;29;20177;-96
2020/12/18 14:22:48;;;;;;;5.03;2.57;;;8.60;99.90;;;;;;4861743;29;20256;-96
2020/12/18 14:25:18;;;;;;;3.93;2.20;;;8.50;99.90;;;;;;4862674;29;20272;-96
2020/12/18 14:27:46;;;;;;;5.37;2.23;;;8.40;99.90;;;;;;4867187;29;20182;-96
2020/12/18 14:30:13;;;;;;;5.53;2.53;;;8.40;99.90;;;;;;4866857;29;20173;-96
2020/12/18 14:32:45;;;;;;;5.13;1.90;;;8.40;99.90;;;;;;4866274;29;20332;-96
2020/12/18 14:35:12;;;;;;;4.10;2.00;;;8.30;99.90;;;;;;4860989;29;20197;-96
2020/12/18 14:37:42;;;;;;;5.03;2.37;;;8.30;99.90;;;;;;4856083;29;20281;-96
2020/12/18 14:40:15;;;;;;;4.70;1.90;;;8.20;99.90;;;;;;4845701;29;20196;-96
2020/12/18 14:42:42;;;;;;;5.93;2.10;;;8.10;99.90;;;;;;4848866;29;20234;-96
2020/12/18 14:45:08;;;;;;;5.07;2.00;;;8.10;99.90;;;;;;4844896;29;20196;-95
2020/12/18 14:47:41;;;;;;;3.37;2.03;;;8.00;99.90;;;;;;4838936;29;20181;-95
2020/12/18 14:50:08;;;;;;;3.97;2.40;;;8.00;99.90;;;;;;4836821;29;20189;-95
2020/12/18 14:52:35;;;;;;;6.30;1.90;;;7.90;99.90;;;;;;4839746;29;20304;-95
2020/12/18 14:55:01;;;;;;;4.60;2.00;;;7.80;99.90;;;;;;4844309;29;20192;-95
2020/12/18 14:57:30;;;;;;;4.80;2.20;;;7.70;99.90;;;;;;4845734;29;20181;-96
2020/12/18 14:59:56;;;;;;;5.23;2.47;;;7.60;99.90;;;;;;4845588;29;20213;-96
2020/12/18 15:02:23;;;;;;;4.50;2.30;;;7.60;99.90;;;;;;4844998;29;20193;-96
2020/12/18 15:04:49;;;;;;;6.70;2.57;;;7.50;99.90;;;;;;4837195;29;20233;-96
2020/12/18 15:07:25;;;;;;;4.13;2.00;;;7.50;99.90;;;;;;4845662;29;20190;-96
2020/12/18 15:09:51;;;;;;;7.30;2.30;;;7.40;99.90;;;;;;4815134;29;20197;-95
2020/12/18 15:12:17;;;;;;;3.97;1.90;;;7.40;99.90;;;;;;4841604;29;20288;-94
2020/12/18 15:14:43;;;;;;;4.87;2.03;;;7.30;99.90;;;;;;4837758;29;20185;-96
2020/12/18 15:17:14;;;;;;;5.90;1.80;;;7.20;99.90;;;;;;4841390;29;20826;-96
2020/12/18 15:19:42;;;;;;;4.90;1.80;;;7.20;99.90;;;;;;4840243;29;20180;-95
2020/12/18 15:22:10;;;;;;;4.40;2.00;;;7.10;99.90;;;;;;4843247;29;20221;-96
2020/12/18 15:24:37;;;;;;;6.37;1.50;;;7.10;99.90;;;;;;4839169;29;20217;-96
2020/12/18 15:27:03;;;;;;;7.03;1.80;;;7.10;99.90;;;;;;4838862;29;20189;-96
2020/12/18 15:29:30;;;;;;;3.40;1.37;;;7.10;99.90;;;;;;4838233;29;20283;-96
2020/12/18 15:32:00;;;;;;;2.53;1.53;;;7.00;99.90;;;;;;4821396;29;20227;-96
2020/12/18 15:34:26;;;;;;;3.70;1.73;;;7.10;99.90;;;;;;4837009;29;20231;-95
2020/12/18 15:36:52;;;;;;;3.20;1.80;;;7.10;99.90;;;;;;4835375;29;20633;-96
2020/12/18 15:39:18;;;;;;;3.57;1.53;;;7.10;99.90;;;;;;4854280;29;20215;-96
2020/12/18 15:41:45;;;;;;;5.23;1.83;;;7.00;99.90;;;;;;4855901;29;20176;-96
2020/12/18 15:44:12;;;;;;;4.97;1.50;;;7.00;99.90;;;;;;4860242;29;20220;-96
2020/12/18 15:46:42;;;;;;;3.20;1.33;;;7.00;99.90;;;;;;4858223;29;20213;-96
2020/12/18 15:49:10;;;;;;;5.23;1.70;;;7.00;99.90;;;;;;4861123;29;20181;-96
2020/12/18 15:51:36;;;;;;;6.20;1.60;;;7.00;99.90;;;;;;4859833;29;20231;-95
2020/12/18 15:54:04;;;;;;;3.70;1.60;;;7.00;99.90;;;;;;4840226;29;20201;-96
2020/12/18 15:56:30;;;;;;;4.77;1.37;;;6.90;99.90;;;;;;4859674;29;20518;-94
2020/12/18 15:58:56;;;;;;;3.30;1.70;;;6.90;99.90;;;;;;4861356;29;20185;-95
2020/12/18 16:01:22;;;;;;;5.53;1.63;;;6.80;99.90;;;;;;4856547;29;20730;-96
2020/12/18 16:03:52;;;;;;;3.07;1.37;;;6.70;99.90;;;;;;4854410;29;20239;-96
2020/12/18 16:06:20;;;;;;;5.07;1.40;;;6.60;99.90;;;;;;4861410;29;20716;-96
2020/12/18 16:08:49;;;;;;;7.03;2.50;;;6.50;99.90;;;;;;4863735;29;20188;-96
2020/12/18 16:11:15;;;;;;;4.67;1.80;;;6.50;99.90;;;;;;4862361;29;20201;-96
2020/12/18 16:13:41;;;;;;;3.47;1.83;;;6.50;99.90;;;;;;4862721;29;20757;-96
2020/12/18 16:16:07;;;;;;;4.83;2.30;;;6.50;99.90;;;;;;4862237;29;20210;-96
2020/12/18 16:18:34;;;;;;;3.47;1.83;;;6.50;99.90;;;;;;4861676;29;20223;-96
2020/12/18 16:21:00;;;;;;;4.67;1.93;;;6.50;99.90;;;;;;4861517;29;20615;-96
2020/12/18 16:23:26;;;;;;;5.10;1.87;;;6.40;99.90;;;;;;4878582;24;20239;-96
2020/12/18 16:25:52;;;;;;;4.83;1.40;;;6.40;99.90;;;;;;4861724;29;20189;-96
2020/12/18 16:28:19;;;;;;;3.63;1.40;;;6.30;99.90;;;;;;4862620;29;20245;-96
2020/12/18 16:30:45;;;;;;;2.80;1.40;;;6.40;99.90;;;;;;4862570;29;20216;-96
2020/12/18 16:33:11;;;;;;;3.03;1.40;;;6.30;99.90;;;;;;4861116;29;20204;-96
2020/12/18 16:35:36;;;;;;;1.23;1.10;;;6.30;99.90;;;;;;4862701;29;20189;-96
2020/12/18 16:38:02;;;;;;;5.20;1.73;;;6.30;99.90;;;;;;4854987;29;20273;-95
2020/12/18 16:40:28;;;;;;;3.53;1.30;;;6.30;99.90;;;;;;4849652;29;20185;-94